createdAt,value
2022-11-07T00:00:50.033Z,31.65
2022-11-07T00:03:19.803Z,30.52
2022-11-07T00:05:48.942Z,26.95
2022-11-07T00:08:19.800Z,22.83
2022-11-07T00:10:48.954Z,25.60
2022-11-07T00:13:18.489Z,25.98
2022-11-07T00:15:47.600Z,26.25
2022-11-07T00:18:19.555Z,21.23
2022-11-07T00:20:49.585Z,22.52
2022-11-07T00:23:20.537Z,23.95
2022-11-07T00:25:49.952Z,25.75
2022-11-07T00:28:19.884Z,25.63
2022-11-07T00:30:49.045Z,23.42
2022-11-07T00:33:18.512Z,25.30
2022-11-07T00:35:47.984Z,30.58
2022-11-07T00:38:17.363Z,30.45
2022-11-07T00:40:56.260Z,25.30
2022-11-07T00:43:25.799Z,29.52
2022-11-07T00:45:57.155Z,35.08
2022-11-07T00:48:26.766Z,32.85
2022-11-07T00:50:55.827Z,30.25
2022-11-07T00:53:25.468Z,31.23
2022-11-07T00:55:56.002Z,26.35
2022-11-07T00:58:25.378Z,30.20
2022-11-07T01:00:54.395Z,22.50
2022-11-07T01:03:41.568Z,27.73
2022-11-07T01:06:11.637Z,24.88
2022-11-07T01:08:40.920Z,23.98
2022-11-07T01:11:11.482Z,27.73
2022-11-07T01:13:40.864Z,24.55
2022-11-07T01:16:11.587Z,29.55
2022-11-07T01:18:40.947Z,30.60
2022-11-07T01:21:15.290Z,25.98
2022-11-07T01:23:46.140Z,32.63
2022-11-07T01:26:17.421Z,26.23
2022-11-07T01:28:46.886Z,27.48
2022-11-07T01:31:17.829Z,24.08
2022-11-07T01:33:48.046Z,23.50
2022-11-07T01:36:19.137Z,21.88
2022-11-07T01:38:50.182Z,24.98
2022-11-07T01:41:24.181Z,30.67
2022-11-07T01:43:58.546Z,33.80
2022-11-07T01:46:30.837Z,32.13
2022-11-07T01:49:14.127Z,27.33
2022-11-07T01:51:47.900Z,28.80
2022-11-07T01:54:21.409Z,26.85
2022-11-07T01:56:55.024Z,27.42
2022-11-07T01:59:28.552Z,26.42
2022-11-07T02:01:57.887Z,29.60
2022-11-07T02:04:30.915Z,29.42
2022-11-07T02:07:04.595Z,27.02
2022-11-07T02:09:34.206Z,29.08
2022-11-07T02:12:05.111Z,30.80
2022-11-07T02:14:34.916Z,33.17
2022-11-07T02:17:04.170Z,31.27
2022-11-07T02:19:38.645Z,25.73
2022-11-07T02:22:18.731Z,22.10
2022-11-07T02:24:52.688Z,25.38
2022-11-07T02:27:25.620Z,35.33
2022-11-07T02:30:00.033Z,30.98
2022-11-07T02:32:29.271Z,23.48
2022-11-07T02:34:59.376Z,31.63
2022-11-07T02:37:32.167Z,32.00
2022-11-07T02:40:05.185Z,31.48
2022-11-07T02:42:44.675Z,26.83
2022-11-07T02:45:17.411Z,28.08
2022-11-07T02:47:46.621Z,27.08
2022-11-07T02:50:17.438Z,25.58
2022-11-07T02:52:46.628Z,27.70
2022-11-07T02:55:17.502Z,29.58
2022-11-07T02:57:46.629Z,36.72
2022-11-07T03:00:17.117Z,25.77
2022-11-07T03:02:47.998Z,26.83
2022-11-07T03:05:18.732Z,28.83
2022-11-07T03:07:49.470Z,24.92
2022-11-07T03:10:20.750Z,27.95
2022-11-07T03:12:50.051Z,30.10
2022-11-07T03:15:19.453Z,31.13
2022-11-07T03:17:49.179Z,23.15
2022-11-07T03:20:18.703Z,27.73
2022-11-07T03:22:48.793Z,25.00
2022-11-07T03:25:19.724Z,23.23
2022-11-07T03:27:52.254Z,27.10
2022-11-07T03:35:34.241Z,25.48
2022-11-07T03:38:04.037Z,21.27
2022-11-07T03:40:34.516Z,27.10
2022-11-07T03:43:03.966Z,28.45
2022-11-07T03:45:33.077Z,21.08
2022-11-07T03:48:02.567Z,22.83
2022-11-07T03:50:31.666Z,27.42
2022-11-07T03:53:02.819Z,18.95
2022-11-07T03:55:33.287Z,24.58
2022-11-07T03:58:02.859Z,26.45
2022-11-07T04:00:32.048Z,26.52
2022-11-07T04:03:08.144Z,29.98
2022-11-07T04:05:57.836Z,27.15
2022-11-07T04:08:27.275Z,23.98
2022-11-07T04:10:57.712Z,31.42
2022-11-07T04:13:44.549Z,32.15
2022-11-07T04:16:31.585Z,34.03
2022-11-07T04:19:02.410Z,25.00
2022-11-07T04:21:31.594Z,27.85
2022-11-07T04:24:01.113Z,29.50
2022-11-07T04:26:49.058Z,30.52
2022-11-07T04:29:18.573Z,27.42
2022-11-07T04:31:48.653Z,37.33
2022-11-07T04:34:18.107Z,24.27
2022-11-07T04:36:47.154Z,24.92
2022-11-07T04:39:16.530Z,26.92
2022-11-07T04:41:47.118Z,27.10
2022-11-07T04:44:16.502Z,26.08
2022-11-07T04:46:47.354Z,32.30
2022-11-07T04:49:16.628Z,34.17
2022-11-07T04:51:46.233Z,29.63
2022-11-07T04:54:16.257Z,32.38
2022-11-07T04:56:46.621Z,27.42
2022-11-07T04:59:15.967Z,33.30
2022-11-07T05:01:45.260Z,30.35
2022-11-07T05:04:14.670Z,33.60
2022-11-07T05:06:44.367Z,30.75
2022-11-07T05:09:18.052Z,39.92
2022-11-07T05:11:49.407Z,38.60
2022-11-07T05:14:18.818Z,41.95
2022-11-07T05:16:48.044Z,32.50
2022-11-07T05:19:19.073Z,36.47
2022-11-07T05:22:08.966Z,32.63
2022-11-07T05:24:38.756Z,26.38
2022-11-07T05:27:17.367Z,33.83
2022-11-07T05:29:47.076Z,34.53
2022-11-07T05:32:16.473Z,37.03
2022-11-07T05:34:46.199Z,32.78
2022-11-07T05:37:15.697Z,35.15
2022-11-07T05:39:45.099Z,31.40
2022-11-07T05:42:15.496Z,40.22
2022-11-07T05:44:44.828Z,30.92
2022-11-07T05:47:13.894Z,41.67
2022-11-07T05:49:43.415Z,46.22
2022-11-07T05:52:12.421Z,39.47
2022-11-07T05:54:41.809Z,32.67
2022-11-07T05:57:10.845Z,39.92
2022-11-07T05:59:41.525Z,37.33
2022-11-07T06:02:10.820Z,42.00
2022-11-07T06:04:40.653Z,40.15
2022-11-07T06:07:09.783Z,44.67
2022-11-07T06:09:39.205Z,40.25
2022-11-07T06:12:08.695Z,35.10
2022-11-07T06:14:38.224Z,43.20
2022-11-07T06:17:08.642Z,41.72
2022-11-07T06:19:37.992Z,44.50
2022-11-07T06:22:07.007Z,36.50
2022-11-07T06:24:36.589Z,45.97
2022-11-07T06:27:05.727Z,46.20
2022-11-07T06:29:35.105Z,44.08
2022-11-07T06:32:04.168Z,41.88
2022-11-07T06:34:35.312Z,42.15
2022-11-07T06:37:04.335Z,51.38
2022-11-07T06:39:33.772Z,50.90
2022-11-07T06:42:02.847Z,43.83
2022-11-07T06:44:32.368Z,49.58
2022-11-07T06:47:02.686Z,53.58
2022-11-07T06:49:32.182Z,55.13
2022-11-07T06:52:02.685Z,56.45
2022-11-07T06:54:32.085Z,46.50
2022-11-07T06:57:01.265Z,55.38
2022-11-07T06:59:30.879Z,52.13
2022-11-07T07:02:00.192Z,49.40
2022-11-07T07:04:29.712Z,51.03
2022-11-07T07:06:58.722Z,51.65
2022-11-07T07:09:32.419Z,50.03
2022-11-07T07:12:02.585Z,50.75
2022-11-07T07:14:32.241Z,51.60
2022-11-07T07:17:01.316Z,58.60
2022-11-07T07:19:30.773Z,41.92
2022-11-07T07:21:59.916Z,46.60
2022-11-07T07:24:30.930Z,52.25
2022-11-07T07:27:00.404Z,43.60
2022-11-07T07:29:29.790Z,50.53
2022-11-07T07:31:59.876Z,48.60
2022-11-07T07:34:30.320Z,44.25
2022-11-07T07:36:59.391Z,50.45
2022-11-07T07:39:30.955Z,44.05
2022-11-07T07:42:00.198Z,51.90
2022-11-07T07:44:29.805Z,43.17
2022-11-07T07:46:59.053Z,47.75
2022-11-07T07:49:28.591Z,41.10
2022-11-07T07:51:57.836Z,48.55
2022-11-07T07:54:27.293Z,42.97
2022-11-07T07:56:57.801Z,41.53
2022-11-07T07:59:27.194Z,39.72
2022-11-07T08:01:57.326Z,49.75
2022-11-07T08:04:27.324Z,46.45
2022-11-07T08:06:56.627Z,43.38
2022-11-07T08:09:26.316Z,43.22
2022-11-07T08:11:56.751Z,42.92
2022-11-07T08:14:26.211Z,38.97
2022-11-07T08:16:55.254Z,46.10
2022-11-07T08:19:25.790Z,41.67
2022-11-07T08:21:55.252Z,44.03
2022-11-07T08:24:25.574Z,43.28
2022-11-07T08:26:56.259Z,42.70
2022-11-07T08:29:25.686Z,46.95
2022-11-07T08:31:54.931Z,45.00
2022-11-07T08:34:24.657Z,42.00
2022-11-07T08:36:53.803Z,46.17
2022-11-07T08:39:23.151Z,41.42
2022-11-07T08:41:52.252Z,42.30
2022-11-07T08:44:23.435Z,44.08
2022-11-07T08:46:52.463Z,40.78
2022-11-07T08:49:21.878Z,41.72
2022-11-07T08:51:51.825Z,41.50
2022-11-07T08:54:21.432Z,39.35
2022-11-07T08:56:50.787Z,37.85
2022-11-07T08:59:20.530Z,35.92
2022-11-07T09:02:28.036Z,37.72
2022-11-07T09:04:41.015Z,38.22
2022-11-07T09:07:10.259Z,40.67
2022-11-07T09:09:41.021Z,38.92
2022-11-07T09:12:10.448Z,39.42
2022-11-07T09:14:39.843Z,46.03
2022-11-07T09:17:10.414Z,44.30
2022-11-07T09:19:39.756Z,39.42
2022-11-07T09:22:08.905Z,41.03
2022-11-07T09:24:38.304Z,38.58
2022-11-07T09:27:07.574Z,35.30
2022-11-07T09:29:37.418Z,35.70
2022-11-07T09:32:30.492Z,40.65
2022-11-07T09:35:04.473Z,41.33
2022-11-07T09:37:34.199Z,38.42
2022-11-07T09:40:04.413Z,35.75
2022-11-07T09:42:45.017Z,39.65
2022-11-07T09:45:15.820Z,38.55
2022-11-07T09:47:49.115Z,34.85
2022-11-07T09:50:28.649Z,34.80
2022-11-07T09:53:02.630Z,34.00
2022-11-07T09:55:36.707Z,32.45
2022-11-07T09:58:13.762Z,35.63
2022-11-07T10:00:43.405Z,36.13
2022-11-07T10:03:13.511Z,32.65
2022-11-07T10:05:51.882Z,41.28
2022-11-07T10:08:29.193Z,28.67
2022-11-07T10:11:01.067Z,31.23
2022-11-07T10:13:55.572Z,29.30
2022-11-07T10:16:36.923Z,34.83
2022-11-07T10:19:21.730Z,30.50
2022-11-07T10:21:59.677Z,27.60
2022-11-07T10:24:46.704Z,27.73
2022-11-07T10:27:17.260Z,26.45
2022-11-07T10:29:51.056Z,29.60
2022-11-07T10:32:27.912Z,23.60
2022-11-07T10:35:07.515Z,23.30
2022-11-07T10:37:38.559Z,24.48
2022-11-07T10:40:15.982Z,26.42
2022-11-07T10:42:48.051Z,24.65
2022-11-07T10:45:18.812Z,23.65
2022-11-07T10:47:58.657Z,30.08
2022-11-07T10:50:28.751Z,23.27
2022-11-07T10:53:01.835Z,19.80
2022-11-07T10:55:43.391Z,19.30
2022-11-07T10:58:21.131Z,20.52
2022-11-07T11:01:01.822Z,22.10
2022-11-07T11:03:43.621Z,23.17
2022-11-07T11:06:24.057Z,21.40
2022-11-07T11:08:55.033Z,24.17
2022-11-07T11:11:31.451Z,22.75
2022-11-07T11:14:06.777Z,26.10
2022-11-07T11:16:40.100Z,23.80
2022-11-07T11:19:20.844Z,31.13
2022-11-07T11:21:51.859Z,28.70
2022-11-07T11:24:33.594Z,31.27
2022-11-07T11:27:10.386Z,27.75
2022-11-07T11:29:46.425Z,28.77
2022-11-07T11:32:27.731Z,25.50
2022-11-07T11:35:20.364Z,27.95
2022-11-07T11:37:58.106Z,25.25
2022-11-07T11:40:34.971Z,26.48
2022-11-07T11:43:15.968Z,22.30
2022-11-07T11:45:55.941Z,26.20
2022-11-07T11:48:29.050Z,28.50
2022-11-07T11:51:05.229Z,28.40
2022-11-07T11:53:38.734Z,27.30
2022-11-07T11:56:27.357Z,29.73
2022-11-07T11:59:12.454Z,25.58
2022-11-07T12:01:50.762Z,31.63
2022-11-07T12:04:42.043Z,26.40
2022-11-07T12:07:29.067Z,24.33
2022-11-07T12:10:03.525Z,27.05
2022-11-07T12:12:50.436Z,27.47
2022-11-07T12:15:32.903Z,26.38
2022-11-07T12:18:15.007Z,23.73
2022-11-07T12:20:57.524Z,25.77
2022-11-07T12:23:40.566Z,27.52
2022-11-07T12:26:16.721Z,22.15
2022-11-07T12:28:57.590Z,22.45
2022-11-07T12:31:40.939Z,26.08
2022-11-07T12:34:22.101Z,19.70
2022-11-07T12:37:07.856Z,17.30
2022-11-07T12:39:53.024Z,20.98
2022-11-07T12:42:44.349Z,17.48
2022-11-07T12:45:23.471Z,20.75
2022-11-07T12:48:13.279Z,23.10
2022-11-07T12:50:50.227Z,24.83
2022-11-07T12:53:30.884Z,20.38
2022-11-07T12:56:04.646Z,20.92
2022-11-07T12:58:36.184Z,29.08
2022-11-07T13:01:08.521Z,26.13
2022-11-07T13:04:07.168Z,22.92
2022-11-07T13:06:42.472Z,18.48
2022-11-07T13:09:21.901Z,17.27
2022-11-07T13:11:56.651Z,25.15
2022-11-07T13:14:31.326Z,20.30
2022-11-07T13:17:25.386Z,20.58
2022-11-07T13:20:02.073Z,23.08
2022-11-07T13:22:36.667Z,24.30
2022-11-07T13:25:24.677Z,19.45
2022-11-07T13:28:23.567Z,18.42
2022-11-07T13:30:59.437Z,20.83
2022-11-07T13:33:33.337Z,20.55
2022-11-07T13:36:15.461Z,18.23
2022-11-07T13:38:50.260Z,20.30
2022-11-07T13:41:20.193Z,22.65
2022-11-07T13:43:55.754Z,18.95
2022-11-07T13:46:31.288Z,16.77
2022-11-07T13:49:06.609Z,18.17
2022-11-07T13:51:40.971Z,19.25
2022-11-07T13:54:18.403Z,17.23
2022-11-07T13:56:54.503Z,19.02
2022-11-07T13:59:36.963Z,19.77
2022-11-07T14:02:06.955Z,16.92
2022-11-07T14:04:49.753Z,18.60
2022-11-07T14:07:27.508Z,14.23
2022-11-07T14:10:00.053Z,17.70
2022-11-07T14:12:30.456Z,16.67
2022-11-07T14:15:01.717Z,17.58
2022-11-07T14:17:36.386Z,15.23
2022-11-07T14:20:16.544Z,14.75
2022-11-07T14:22:53.848Z,16.20
2022-11-07T14:25:27.530Z,14.55
2022-11-07T14:27:59.333Z,14.07
2022-11-07T14:30:30.286Z,14.35
2022-11-07T14:33:00.727Z,12.73
2022-11-07T14:35:33.940Z,16.67
2022-11-07T14:38:12.208Z,19.55
2022-11-07T14:40:43.446Z,21.35
2022-11-07T14:43:14.953Z,18.25
2022-11-07T14:48:37.288Z,17.60
2022-11-07T14:51:08.653Z,16.02
2022-11-07T14:53:48.812Z,17.23
2022-11-07T14:56:21.006Z,17.33
2022-11-07T14:58:50.710Z,18.48
2022-11-07T15:01:29.382Z,31.15
2022-11-07T15:04:01.322Z,16.17
2022-11-07T15:06:35.194Z,14.25
2022-11-07T15:09:08.066Z,17.77
2022-11-07T15:11:39.163Z,17.45
2022-11-07T15:14:23.858Z,16.38
2022-11-07T15:16:55.172Z,17.67
2022-11-07T15:19:25.741Z,18.58
2022-11-07T15:22:00.398Z,19.35
2022-11-07T15:24:36.011Z,20.63
2022-11-07T15:27:07.386Z,22.75
2022-11-07T15:29:37.566Z,20.27
2022-11-07T15:32:12.315Z,19.80
2022-11-07T15:35:00.822Z,24.90
2022-11-07T15:37:32.183Z,18.17
2022-11-07T15:40:01.455Z,28.20
2022-11-07T15:42:31.414Z,23.33
2022-11-07T15:45:00.474Z,27.67
2022-11-07T15:47:29.908Z,23.27
2022-11-07T15:49:59.158Z,22.73
2022-11-07T15:52:28.476Z,26.80
2022-11-07T15:54:58.902Z,23.15
2022-11-07T15:57:28.489Z,26.17
2022-11-07T15:59:57.636Z,20.50
2022-11-07T16:02:27.184Z,32.33
2022-11-07T16:04:56.308Z,32.30
2022-11-07T16:07:25.844Z,28.23
2022-11-07T16:09:54.955Z,28.02
2022-11-07T16:12:25.817Z,21.05
2022-11-07T16:14:59.220Z,16.63
2022-11-07T16:17:28.790Z,19.92
2022-11-07T16:20:01.378Z,20.48
2022-11-07T16:22:31.110Z,23.48
2022-11-07T16:25:00.197Z,27.42
2022-11-07T16:27:30.970Z,23.23
2022-11-07T16:30:00.009Z,21.52
2022-11-07T16:32:29.331Z,22.17
2022-11-07T16:34:58.302Z,20.20
2022-11-07T16:37:27.600Z,22.17
2022-11-07T16:39:56.743Z,22.35
2022-11-07T16:42:26.408Z,16.27
2022-11-07T16:44:57.179Z,17.50
2022-11-07T16:47:26.620Z,14.05
2022-11-07T16:49:56.258Z,15.65
2022-11-07T16:52:28.412Z,15.65
2022-11-07T16:54:57.442Z,17.55
2022-11-07T16:57:27.678Z,16.73
2022-11-07T16:59:58.068Z,17.73
2022-11-07T17:02:28.056Z,21.77
2022-11-07T17:04:57.218Z,19.80
2022-11-07T17:07:26.658Z,15.48
2022-11-07T17:09:55.874Z,16.63
2022-11-07T17:12:25.981Z,19.42
2022-11-07T17:14:55.255Z,21.42
2022-11-07T17:17:31.653Z,20.65
2022-11-07T17:20:00.752Z,16.70
2022-11-07T17:22:30.189Z,15.32
2022-11-07T17:24:59.247Z,15.60
2022-11-07T17:27:29.166Z,16.17
2022-11-07T17:29:58.455Z,15.65
2022-11-07T17:32:27.883Z,17.58
2022-11-07T17:35:18.190Z,18.60
2022-11-07T17:37:48.409Z,25.75
2022-11-07T17:40:22.817Z,23.92
2022-11-07T17:42:52.192Z,20.55
2022-11-07T17:45:21.295Z,14.32
2022-11-07T17:47:50.900Z,27.77
2022-11-07T17:50:22.997Z,15.07
2022-11-07T17:52:53.426Z,17.63
2022-11-07T17:55:24.668Z,16.55
2022-11-07T17:57:54.754Z,13.70
2022-11-07T18:00:27.135Z,17.25
2022-11-07T18:02:56.788Z,19.20
2022-11-07T18:05:31.950Z,14.95
2022-11-07T18:08:02.875Z,10.10
2022-11-07T18:10:32.930Z,13.25
2022-11-07T18:13:02.417Z,15.27
2022-11-07T18:15:31.542Z,10.05
2022-11-07T18:18:01.987Z,15.32
2022-11-07T18:20:34.953Z,21.58
2022-11-07T18:23:04.538Z,15.40
2022-11-07T18:25:33.702Z,16.08
2022-11-07T18:28:03.219Z,12.20
2022-11-07T18:30:32.362Z,13.40
2022-11-07T18:33:01.806Z,13.82
2022-11-07T18:35:30.950Z,16.00
2022-11-07T18:38:01.784Z,12.55
2022-11-07T18:40:30.862Z,16.02
2022-11-07T18:43:00.470Z,14.70
2022-11-07T18:45:29.709Z,15.55
2022-11-07T18:47:59.090Z,14.25
2022-11-07T18:50:28.289Z,18.67
2022-11-07T18:52:57.595Z,13.30
2022-11-07T18:55:28.087Z,16.23
2022-11-07T18:57:59.301Z,16.20
2022-11-07T19:00:28.846Z,18.38
2022-11-07T19:02:58.301Z,17.52
2022-11-07T19:05:27.826Z,15.75
2022-11-07T19:07:57.134Z,20.50
2022-11-07T19:10:27.592Z,20.88
2022-11-07T19:12:56.906Z,16.88
2022-11-07T19:15:29.698Z,19.50
2022-11-07T19:17:59.232Z,18.00
2022-11-07T19:20:28.718Z,14.48
2022-11-07T19:22:58.137Z,19.45
2022-11-07T19:25:28.709Z,14.18
2022-11-07T19:27:58.149Z,13.88
2022-11-07T19:30:28.450Z,12.98
2022-11-07T19:32:57.997Z,17.45
2022-11-07T19:35:27.498Z,17.05
2022-11-07T19:37:57.765Z,14.85
2022-11-07T19:40:28.463Z,10.85
2022-11-07T19:42:58.212Z,14.32
2022-11-07T19:45:27.685Z,9.52
2022-11-07T19:47:57.262Z,17.10
2022-11-07T19:50:26.342Z,10.77
2022-11-07T19:52:55.942Z,14.50
2022-11-07T19:55:25.503Z,15.73
2022-11-07T19:57:56.319Z,15.05
2022-11-07T20:00:26.417Z,13.35
2022-11-07T20:02:56.337Z,15.43
2022-11-07T20:05:27.030Z,15.30
2022-11-07T20:08:02.171Z,12.43
2022-11-07T20:10:34.048Z,16.35
2022-11-07T20:13:04.810Z,10.60
2022-11-07T20:15:33.891Z,11.00
2022-11-07T20:18:03.256Z,11.65
2022-11-07T20:20:32.438Z,15.55
2022-11-07T20:23:01.769Z,9.18
2022-11-07T20:25:32.694Z,10.50
2022-11-07T20:28:03.596Z,13.30
2022-11-07T20:30:33.193Z,15.63
2022-11-07T20:33:02.638Z,13.25
2022-11-07T20:35:31.818Z,9.10
2022-11-07T20:38:01.222Z,11.07
2022-11-07T20:40:31.982Z,10.52
2022-11-07T20:43:01.900Z,16.80
2022-11-07T20:45:32.533Z,10.73
2022-11-07T20:48:02.091Z,12.73
2022-11-07T20:50:33.229Z,11.43
2022-11-07T20:53:02.638Z,10.80
2022-11-07T20:55:32.301Z,13.18
2022-11-07T20:58:03.652Z,12.00
2022-11-07T21:00:34.378Z,11.15
2022-11-07T21:03:04.090Z,10.43
2022-11-07T21:05:34.316Z,12.77
2022-11-07T21:08:03.716Z,9.52
2022-11-07T21:10:32.905Z,10.60
2022-11-07T21:13:02.305Z,10.02
2022-11-07T21:15:31.482Z,14.85
2022-11-07T21:18:04.394Z,13.30
2022-11-07T21:20:33.576Z,16.98
2022-11-07T21:23:03.056Z,11.18
2022-11-07T21:25:32.412Z,10.27
2022-11-07T21:28:01.828Z,12.93
2022-11-07T21:30:30.998Z,12.07
2022-11-07T21:33:01.914Z,13.15
2022-11-07T21:35:33.494Z,10.10
2022-11-07T21:38:03.180Z,10.00
2022-11-07T21:40:32.242Z,20.75
2022-11-07T21:43:01.628Z,13.23
2022-11-07T21:45:30.780Z,11.10
2022-11-07T21:48:01.615Z,9.38
2022-11-07T21:50:44.326Z,14.63
2022-11-07T21:53:15.247Z,13.85
2022-11-07T21:55:44.893Z,10.65
2022-11-07T21:58:14.285Z,9.25
2022-11-07T22:00:43.444Z,14.30
2022-11-07T22:03:14.902Z,13.15
2022-11-07T22:05:44.150Z,10.43
2022-11-07T22:08:13.712Z,18.70
2022-11-07T22:10:42.886Z,10.48
2022-11-07T22:13:12.308Z,11.30
2022-11-07T22:15:41.422Z,13.00
2022-11-07T22:18:11.090Z,8.52
2022-11-07T22:20:41.734Z,10.75
2022-11-07T22:23:11.148Z,12.13
2022-11-07T22:25:40.412Z,10.45
2022-11-07T22:28:28.407Z,7.28
2022-11-07T22:30:57.807Z,11.35
2022-11-07T22:33:27.231Z,11.68
2022-11-07T22:36:00.332Z,9.98
2022-11-07T22:38:32.299Z,8.13
2022-11-07T22:41:02.576Z,11.25
2022-11-07T22:43:32.085Z,7.93
2022-11-07T22:46:04.166Z,10.50
2022-11-07T22:48:34.175Z,10.93
2022-11-07T22:51:06.138Z,11.65
2022-11-07T22:53:36.636Z,13.02
2022-11-07T22:56:09.682Z,11.18
2022-11-07T22:58:39.849Z,12.68
2022-11-07T23:01:15.514Z,9.20
2022-11-07T23:03:45.397Z,9.88
2022-11-07T23:06:16.692Z,9.15
2022-11-07T23:08:46.813Z,12.43
2022-11-07T23:14:09.562Z,9.77
2022-11-07T23:16:40.786Z,9.80
2022-11-07T23:19:12.928Z,11.95
2022-11-07T23:21:43.929Z,10.50
2022-11-07T23:24:14.077Z,10.18
2022-11-07T23:26:43.476Z,7.60
2022-11-07T23:29:15.591Z,12.82
2022-11-07T23:31:47.103Z,11.18
2022-11-07T23:34:17.612Z,10.02
2022-11-07T23:36:50.617Z,9.70
2022-11-07T23:39:22.121Z,12.90
2022-11-07T23:41:51.285Z,12.88
2022-11-07T23:44:20.837Z,15.70
2022-11-07T23:47:07.138Z,11.20
2022-11-07T23:49:50.362Z,11.65
2022-11-07T23:52:20.880Z,9.80
2022-11-07T23:55:08.212Z,11.18
2022-11-07T23:57:58.536Z,8.65
